createdAt,value
2022-09-07T00:01:00.683Z,56.50
2022-09-07T00:03:27.743Z,56.18
2022-09-07T00:05:54.596Z,56.12
2022-09-07T00:08:26.824Z,56.05
2022-09-07T00:11:00.727Z,56.08
2022-09-07T00:13:33.429Z,56.20
2022-09-07T00:16:06.894Z,56.25
2022-09-07T00:18:33.953Z,56.36
2022-09-07T00:21:12.079Z,56.33
2022-09-07T00:23:40.250Z,56.52
2022-09-07T00:26:11.523Z,56.50
2022-09-07T00:28:39.202Z,55.90
2022-09-07T00:31:19.130Z,56.08
2022-09-07T00:33:48.968Z,56.36
2022-09-07T00:36:18.306Z,56.73
2022-09-07T00:38:45.120Z,57.89
2022-09-07T00:41:13.387Z,58.68
2022-09-07T00:43:48.215Z,60.09
2022-09-07T00:46:19.525Z,60.81
2022-09-07T00:49:08.084Z,62.36
2022-09-07T00:51:40.713Z,63.29
2022-09-07T00:54:24.194Z,64.66
2022-09-07T00:56:53.566Z,65.62
2022-09-07T00:59:37.655Z,66.68
2022-09-07T01:02:05.875Z,67.68
2022-09-07T01:04:33.093Z,67.91
2022-09-07T01:07:02.340Z,67.84
2022-09-07T01:09:30.895Z,68.28
2022-09-07T01:12:02.025Z,68.12
2022-09-07T01:14:35.530Z,68.18
2022-09-07T01:17:20.538Z,68.25
2022-09-07T01:20:17.534Z,68.58
2022-09-07T01:23:12.067Z,69.33
2022-09-07T01:26:11.330Z,70.02
2022-09-07T01:28:38.962Z,69.05
2022-09-07T01:31:16.810Z,69.34
2022-09-07T01:34:06.891Z,69.27
2022-09-07T01:37:30.814Z,70.58
2022-09-07T01:40:58.119Z,69.30
2022-09-07T01:44:02.862Z,71.02
2022-09-07T01:47:00.194Z,71.16
2022-09-07T01:49:48.090Z,73.93
2022-09-07T01:52:44.383Z,72.01
2022-09-07T01:55:27.170Z,71.09
2022-09-07T01:58:15.227Z,70.96
2022-09-07T02:00:50.699Z,70.03
2022-09-07T02:03:34.255Z,69.74
2022-09-07T02:06:05.933Z,69.72
2022-09-07T02:08:45.998Z,70.16
2022-09-07T02:11:30.750Z,70.44
2022-09-07T02:14:19.595Z,70.37
2022-09-07T02:17:29.179Z,70.87
2022-09-07T02:20:06.756Z,70.80
2022-09-07T02:22:42.140Z,71.07
2022-09-07T02:25:14.283Z,70.98
2022-09-07T02:28:08.904Z,71.43
2022-09-07T02:30:35.635Z,70.39
2022-09-07T02:33:02.313Z,70.34
2022-09-07T02:35:29.016Z,70.40
2022-09-07T02:37:58.395Z,70.19
2022-09-07T02:40:24.916Z,69.69
2022-09-07T02:42:51.970Z,69.57
2022-09-07T02:45:18.933Z,69.49
2022-09-07T02:48:10.878Z,70.41
2022-09-07T02:50:56.286Z,70.39
2022-09-07T02:53:52.555Z,70.62
2022-09-07T02:56:49.796Z,71.11
2022-09-07T02:59:39.975Z,71.72
2022-09-07T03:02:33.764Z,72.22
2022-09-07T03:05:10.310Z,71.61
2022-09-07T03:08:01.231Z,73.40
2022-09-07T03:10:29.367Z,72.40
2022-09-07T03:12:55.931Z,72.67
2022-09-07T03:15:27.802Z,72.40
2022-09-07T03:17:54.686Z,72.54
2022-09-07T03:20:23.085Z,72.23
2022-09-07T03:22:52.292Z,72.25
2022-09-07T03:25:19.754Z,72.15
2022-09-07T03:27:46.338Z,72.25
2022-09-07T03:30:13.759Z,72.32
2022-09-07T03:32:40.397Z,72.43
2022-09-07T03:35:08.740Z,72.88
2022-09-07T03:37:38.990Z,72.95
2022-09-07T03:40:09.690Z,72.83
2022-09-07T03:42:37.512Z,72.83
2022-09-07T03:45:05.103Z,72.88
2022-09-07T03:47:34.743Z,72.50
2022-09-07T03:50:01.275Z,72.40
2022-09-07T03:52:27.832Z,72.02
2022-09-07T03:54:54.398Z,72.74
2022-09-07T03:57:21.001Z,73.06
2022-09-07T03:59:47.915Z,73.67
2022-09-07T04:02:14.514Z,73.51
2022-09-07T04:04:43.093Z,73.39
2022-09-07T04:07:10.086Z,73.44
2022-09-07T04:09:36.610Z,73.53
2022-09-07T04:12:03.630Z,73.26
2022-09-07T04:14:30.331Z,72.84
2022-09-07T04:16:56.956Z,72.62
2022-09-07T04:19:23.822Z,72.54
2022-09-07T04:21:50.372Z,72.44
2022-09-07T04:24:18.274Z,72.35
2022-09-07T04:26:45.366Z,72.34
2022-09-07T04:29:13.183Z,72.42
2022-09-07T04:31:40.233Z,72.45
2022-09-07T04:34:07.499Z,72.53
2022-09-07T04:36:34.806Z,72.26
2022-09-07T04:39:04.915Z,72.02
2022-09-07T04:41:34.136Z,71.67
2022-09-07T04:44:03.428Z,71.73
2022-09-07T04:46:35.945Z,71.26
2022-09-07T04:49:09.411Z,71.37
2022-09-07T04:51:38.491Z,71.83
2022-09-07T04:54:06.208Z,72.00
2022-09-07T04:56:33.753Z,72.28
2022-09-07T04:59:03.812Z,71.83
2022-09-07T05:01:30.462Z,71.80
2022-09-07T05:04:01.083Z,72.08
2022-09-07T05:06:28.629Z,72.20
2022-09-07T05:08:55.825Z,72.54
2022-09-07T05:11:28.759Z,72.36
2022-09-07T05:14:01.865Z,72.32
2022-09-07T05:16:30.181Z,72.44
2022-09-07T05:19:02.883Z,72.12
2022-09-07T05:21:32.639Z,72.11
2022-09-07T05:24:01.357Z,71.96
2022-09-07T05:26:30.925Z,72.29
2022-09-07T05:31:48.887Z,71.65
2022-09-07T05:34:31.367Z,71.90
2022-09-07T05:36:58.821Z,71.50
2022-09-07T05:39:25.808Z,72.01
2022-09-07T05:41:52.462Z,72.45
2022-09-07T05:47:06.059Z,72.80
2022-09-07T05:49:32.669Z,73.17
2022-09-07T05:51:59.229Z,73.24
2022-09-07T05:54:25.832Z,73.29
2022-09-07T05:56:52.383Z,73.09
2022-09-07T05:59:18.906Z,72.87
2022-09-07T06:01:45.491Z,72.69
2022-09-07T06:04:12.076Z,73.13
2022-09-07T06:06:38.911Z,73.33
2022-09-07T06:09:06.750Z,74.01
2022-09-07T06:11:33.401Z,73.94
2022-09-07T06:13:59.958Z,73.70
2022-09-07T06:16:26.586Z,73.88
2022-09-07T06:18:53.162Z,73.55
2022-09-07T06:21:22.890Z,73.56
2022-09-07T06:23:50.802Z,74.38
2022-09-07T06:26:19.487Z,74.72
2022-09-07T06:28:50.245Z,74.71
2022-09-07T06:31:21.630Z,74.81
2022-09-07T06:33:49.284Z,75.15
2022-09-07T06:36:22.489Z,75.12
2022-09-07T06:38:50.915Z,74.86
2022-09-07T06:44:08.598Z,74.57
2022-09-07T06:49:23.432Z,74.98
2022-09-07T06:51:50.679Z,75.63
2022-09-07T06:57:08.544Z,77.55
2022-09-07T06:59:35.760Z,75.67
2022-09-07T07:02:02.431Z,75.15
2022-09-07T07:04:28.981Z,75.10
2022-09-07T07:06:55.636Z,74.64
2022-09-07T07:09:22.159Z,75.31
2022-09-07T07:11:48.716Z,74.99
2022-09-07T07:14:16.388Z,74.90
2022-09-07T07:16:43.633Z,74.67
2022-09-07T07:19:10.779Z,74.54
2022-09-07T07:21:55.294Z,74.49
2022-09-07T07:24:23.868Z,74.33
2022-09-07T07:26:50.439Z,74.06
2022-09-07T07:29:18.861Z,73.99
2022-09-07T07:31:47.097Z,74.50
2022-09-07T07:34:15.073Z,75.08
2022-09-07T07:36:41.646Z,75.44
2022-09-07T07:39:08.497Z,75.80
2022-09-07T07:41:56.562Z,76.03
2022-09-07T07:44:25.450Z,76.18
2022-09-07T07:46:52.371Z,75.54
2022-09-07T07:49:18.992Z,75.34
2022-09-07T07:54:36.676Z,75.54
2022-09-07T07:57:05.482Z,75.55
2022-09-07T07:59:31.978Z,75.45
2022-09-07T08:02:04.139Z,75.42
2022-09-07T08:04:36.016Z,75.21
2022-09-07T08:07:09.729Z,75.54
2022-09-07T08:09:42.633Z,75.50
2022-09-07T08:12:19.744Z,75.45
2022-09-07T08:14:49.493Z,75.58
2022-09-07T08:17:17.495Z,75.57
2022-09-07T08:19:44.985Z,75.64
2022-09-07T08:22:11.974Z,75.76
2022-09-07T08:24:39.065Z,75.42
2022-09-07T08:27:05.716Z,75.55
2022-09-07T08:29:34.534Z,75.31
2022-09-07T08:32:03.545Z,75.41
2022-09-07T08:34:30.084Z,75.25
2022-09-07T08:36:56.578Z,75.11
2022-09-07T08:39:23.027Z,74.83
2022-09-07T08:42:07.559Z,74.75
2022-09-07T08:44:55.535Z,75.20
2022-09-07T08:47:38.520Z,75.16
2022-09-07T08:50:38.764Z,76.03
2022-09-07T08:53:15.926Z,75.44
2022-09-07T08:55:58.807Z,75.25
2022-09-07T08:58:50.695Z,74.24
2022-09-07T09:01:33.247Z,74.31
2022-09-07T09:04:17.607Z,74.28
2022-09-07T09:07:18.999Z,73.79
2022-09-07T09:10:30.279Z,73.50
2022-09-07T09:13:18.915Z,73.59
2022-09-07T09:15:57.209Z,73.63
2022-09-07T09:19:18.926Z,73.41
2022-09-07T09:21:45.767Z,74.04
2022-09-07T09:24:19.193Z,73.11
2022-09-07T09:26:53.902Z,72.83
2022-09-07T09:29:23.286Z,72.59
2022-09-07T09:31:49.755Z,72.36
2022-09-07T09:34:23.673Z,71.86
2022-09-07T09:36:54.947Z,71.29
2022-09-07T09:39:33.178Z,71.71
2022-09-07T09:42:24.266Z,71.59
2022-09-07T09:44:51.676Z,70.62
2022-09-07T09:47:33.775Z,70.01
2022-09-07T09:52:29.282Z,69.04
2022-09-07T09:53:06.939Z,68.51
2022-09-07T09:55:37.607Z,67.84
2022-09-07T10:01:35.981Z,69.05
2022-09-07T10:04:33.980Z,68.55
2022-09-07T10:07:28.459Z,68.89
2022-09-07T10:09:56.667Z,68.74
2022-09-07T10:12:35.483Z,67.20
2022-09-07T10:15:06.611Z,67.38
2022-09-07T10:17:49.647Z,66.87
2022-09-07T10:20:16.002Z,67.04
2022-09-07T10:22:58.548Z,66.37
2022-09-07T10:25:33.049Z,66.32
2022-09-07T10:28:11.492Z,66.14
2022-09-07T10:31:02.357Z,65.26
2022-09-07T10:33:41.073Z,64.22
2022-09-07T10:36:51.073Z,63.97
2022-09-07T10:39:26.591Z,64.20
2022-09-07T10:42:14.945Z,63.32
2022-09-07T10:44:59.796Z,63.32
2022-09-07T10:47:57.321Z,61.82
2022-09-07T10:50:47.009Z,62.33
2022-09-07T10:53:39.361Z,62.36
2022-09-07T10:56:17.563Z,61.92
2022-09-07T10:59:17.248Z,61.43
2022-09-07T11:02:15.887Z,61.06
2022-09-07T11:05:19.484Z,60.47
2022-09-07T11:08:18.318Z,60.73
2022-09-07T11:12:00.775Z,61.14
2022-09-07T11:14:23.593Z,60.59
2022-09-07T11:17:02.886Z,60.68
2022-09-07T11:19:47.814Z,60.74
2022-09-07T11:22:39.978Z,60.54
2022-09-07T11:25:35.593Z,60.60
2022-09-07T11:28:20.589Z,61.13
2022-09-07T11:31:00.217Z,60.16
2022-09-07T11:33:35.475Z,58.86
2022-09-07T11:36:15.124Z,58.73
2022-09-07T11:39:17.475Z,58.58
2022-09-07T11:41:57.884Z,58.70
2022-09-07T11:44:39.704Z,58.80
2022-09-07T11:47:46.192Z,58.79
2022-09-07T11:50:20.804Z,58.81
2022-09-07T11:52:57.346Z,58.65
2022-09-07T11:55:29.764Z,57.83
2022-09-07T11:58:44.797Z,56.39
2022-09-07T12:01:39.266Z,56.01
2022-09-07T12:04:30.307Z,57.03
2022-09-07T12:07:44.259Z,55.66
2022-09-07T12:11:23.199Z,56.62
2022-09-07T12:14:23.479Z,56.71
2022-09-07T12:17:18.647Z,57.02
2022-09-07T12:19:45.361Z,57.47
2022-09-07T12:22:21.861Z,56.13
2022-09-07T12:24:54.287Z,55.83
2022-09-07T12:27:20.715Z,55.19
2022-09-07T12:30:09.022Z,53.97
2022-09-07T12:32:55.915Z,53.15
2022-09-07T12:35:57.919Z,53.97
2022-09-07T12:38:30.634Z,52.72
2022-09-07T12:41:22.034Z,53.11
2022-09-07T12:43:48.422Z,54.19
2022-09-07T12:46:46.798Z,53.67
2022-09-07T12:49:34.619Z,52.98
2022-09-07T12:52:45.627Z,53.12
2022-09-07T12:56:15.878Z,53.14
2022-09-07T12:59:13.925Z,53.09
2022-09-07T13:02:10.194Z,52.81
2022-09-07T13:06:00.155Z,53.10
2022-09-07T13:08:43.832Z,53.47
2022-09-07T13:11:20.369Z,53.21
2022-09-07T13:14:02.923Z,52.41
2022-09-07T13:19:50.673Z,52.60
2022-09-07T13:22:29.466Z,51.61
2022-09-07T13:24:59.599Z,51.74
2022-09-07T13:28:01.737Z,50.75
2022-09-07T13:31:05.808Z,51.82
2022-09-07T13:33:35.249Z,52.05
2022-09-07T13:36:05.870Z,51.75
2022-09-07T13:38:36.643Z,52.10
2022-09-07T13:41:15.019Z,50.94
2022-09-07T13:43:50.711Z,51.20
2022-09-07T13:46:45.078Z,51.37
2022-09-07T13:49:46.760Z,51.13
2022-09-07T13:52:23.082Z,51.07
2022-09-07T13:55:23.829Z,50.93
2022-09-07T13:58:13.189Z,51.08
2022-09-07T14:00:55.540Z,50.38
2022-09-07T14:03:25.971Z,50.85
2022-09-07T14:06:22.699Z,50.57
2022-09-07T14:08:55.598Z,50.59
2022-09-07T14:11:27.631Z,50.35
2022-09-07T14:14:27.145Z,49.79
2022-09-07T14:17:01.565Z,50.40
2022-09-07T14:19:58.944Z,50.52
2022-09-07T14:22:35.124Z,49.67
2022-09-07T14:25:05.946Z,49.80
2022-09-07T14:27:36.355Z,49.50
2022-09-07T14:30:31.415Z,48.83
2022-09-07T14:33:04.613Z,48.98
2022-09-07T14:35:38.311Z,48.02
2022-09-07T14:41:20.224Z,49.75
2022-09-07T14:43:56.195Z,49.23
2022-09-07T14:46:34.038Z,49.21
2022-09-07T14:49:07.623Z,48.78
2022-09-07T14:51:36.808Z,48.65
2022-09-07T14:54:07.007Z,48.25
2022-09-07T14:56:40.759Z,47.82
2022-09-07T14:59:41.296Z,47.59
2022-09-07T15:02:24.004Z,47.36
2022-09-07T15:05:13.009Z,47.33
2022-09-07T15:07:45.722Z,48.12
2022-09-07T15:10:21.413Z,48.54
2022-09-07T15:12:58.181Z,49.03
2022-09-07T15:15:27.999Z,49.35
2022-09-07T15:18:03.058Z,50.02
2022-09-07T15:20:39.754Z,49.58
2022-09-07T15:23:17.404Z,49.08
2022-09-07T15:25:53.472Z,48.73
2022-09-07T15:34:19.588Z,48.96
2022-09-07T15:36:52.200Z,49.54
2022-09-07T15:39:26.519Z,49.18
2022-09-07T15:41:53.434Z,48.89
2022-09-07T15:44:24.963Z,48.04
2022-09-07T15:49:46.009Z,48.43
2022-09-07T15:52:16.034Z,47.83
2022-09-07T15:54:43.515Z,47.79
2022-09-07T15:59:56.886Z,46.63
2022-09-07T16:05:10.538Z,48.27
2022-09-07T16:10:24.393Z,47.92
2022-09-07T16:15:48.719Z,47.64
2022-09-07T16:18:17.883Z,47.32
2022-09-07T16:20:45.376Z,47.68
2022-09-07T16:23:16.175Z,48.07
2022-09-07T16:25:58.251Z,48.14
2022-09-07T16:28:26.408Z,48.86
2022-09-07T16:30:54.331Z,49.11
2022-09-07T16:33:20.850Z,48.85
2022-09-07T16:36:02.606Z,48.50
2022-09-07T16:38:47.443Z,48.98
2022-09-07T16:41:26.577Z,48.83
2022-09-07T16:43:54.778Z,49.72
2022-09-07T16:46:28.491Z,49.80
2022-09-07T16:48:55.275Z,49.39
2022-09-07T16:51:24.109Z,49.99
2022-09-07T16:53:54.039Z,50.40
2022-09-07T16:56:23.929Z,50.80
2022-09-07T16:58:57.274Z,50.89
2022-09-07T17:01:35.847Z,50.94
2022-09-07T17:04:05.554Z,50.33
2022-09-07T17:06:36.298Z,50.68
2022-09-07T17:09:02.955Z,50.06
2022-09-07T17:11:33.259Z,50.06
2022-09-07T17:14:01.167Z,50.14
2022-09-07T17:16:31.925Z,49.87
2022-09-07T17:21:51.658Z,51.09
2022-09-07T17:24:19.738Z,51.17
2022-09-07T17:26:46.462Z,51.03
2022-09-07T17:29:13.393Z,51.56
2022-09-07T17:34:26.547Z,53.51
2022-09-07T17:36:53.151Z,52.60
2022-09-07T17:39:20.041Z,52.71
2022-09-07T17:41:54.416Z,52.76
2022-09-07T17:44:23.144Z,52.81
2022-09-07T17:46:49.726Z,52.79
2022-09-07T17:49:17.527Z,52.78
2022-09-07T17:51:45.444Z,53.05
2022-09-07T17:54:15.837Z,53.25
2022-09-07T17:56:45.059Z,53.12
2022-09-07T18:01:58.955Z,53.56
2022-09-07T18:04:25.675Z,54.01
2022-09-07T18:06:54.476Z,54.09
2022-09-07T18:09:21.649Z,54.14
2022-09-07T18:11:49.585Z,54.19
2022-09-07T18:14:18.406Z,54.32
2022-09-07T18:16:49.138Z,54.63
2022-09-07T18:19:16.942Z,54.73
2022-09-07T18:21:44.760Z,55.15
2022-09-07T18:24:22.792Z,55.53
2022-09-07T18:26:52.845Z,55.80
2022-09-07T18:29:32.287Z,55.75
2022-09-07T18:32:00.702Z,56.26
2022-09-07T18:34:28.645Z,56.43
2022-09-07T18:36:55.428Z,56.65
2022-09-07T18:39:22.679Z,56.68
2022-09-07T18:41:49.196Z,56.52
2022-09-07T18:47:02.312Z,56.65
2022-09-07T18:49:28.776Z,57.03
2022-09-07T18:54:41.790Z,57.13
2022-09-07T18:57:08.582Z,57.42
2022-09-07T18:59:35.402Z,57.71
2022-09-07T19:02:04.797Z,57.44
2022-09-07T19:07:20.538Z,57.91
2022-09-07T19:09:48.017Z,58.00
2022-09-07T19:12:14.503Z,58.55
2022-09-07T19:14:42.065Z,59.00
2022-09-07T19:17:10.706Z,58.92
2022-09-07T19:19:38.310Z,59.55
2022-09-07T19:22:04.907Z,59.77
2022-09-07T19:24:32.072Z,59.73
2022-09-07T19:27:00.660Z,59.79
2022-09-07T19:29:28.509Z,59.81
2022-09-07T19:32:04.063Z,60.12
2022-09-07T19:34:40.755Z,60.58
2022-09-07T19:37:10.312Z,60.93
2022-09-07T19:39:37.369Z,61.04
2022-09-07T19:42:06.089Z,60.98
2022-09-07T19:44:32.899Z,61.47
2022-09-07T19:47:00.377Z,61.65
2022-09-07T19:49:27.594Z,61.78
2022-09-07T19:51:54.575Z,61.88
2022-09-07T19:54:21.020Z,61.94
2022-09-07T19:56:47.624Z,61.88
2022-09-07T19:59:14.506Z,61.91
2022-09-07T20:01:45.746Z,62.29
2022-09-07T20:04:20.414Z,62.27
2022-09-07T20:06:49.906Z,62.63
2022-09-07T20:09:18.885Z,62.84
2022-09-07T20:11:47.349Z,62.97
2022-09-07T20:14:16.137Z,63.12
2022-09-07T20:16:42.794Z,63.39
2022-09-07T20:19:14.629Z,63.37
2022-09-07T20:21:42.055Z,63.92
2022-09-07T20:24:12.217Z,64.13
2022-09-07T20:26:38.987Z,64.66
2022-09-07T20:29:26.242Z,64.80
2022-09-07T20:31:53.457Z,65.01
2022-09-07T20:34:20.106Z,65.16
2022-09-07T20:36:49.566Z,65.34
2022-09-07T20:39:16.762Z,65.38
2022-09-07T20:41:43.303Z,65.11
2022-09-07T20:44:09.901Z,65.32
2022-09-07T20:46:36.667Z,65.36
2022-09-07T20:49:04.672Z,65.75
2022-09-07T20:51:31.675Z,65.94
2022-09-07T20:53:58.140Z,65.70
2022-09-07T20:56:28.193Z,66.02
2022-09-07T20:59:00.782Z,65.92
2022-09-07T21:01:29.389Z,66.20
2022-09-07T21:03:58.546Z,66.07
2022-09-07T21:06:27.455Z,65.93
2022-09-07T21:08:56.137Z,65.56
2022-09-07T21:11:34.746Z,65.44
2022-09-07T21:14:07.989Z,65.33
2022-09-07T21:16:35.875Z,65.47
2022-09-07T21:19:05.859Z,65.70
2022-09-07T21:21:38.898Z,65.87
2022-09-07T21:24:07.591Z,66.31
2022-09-07T21:26:34.098Z,66.84
2022-09-07T21:29:03.833Z,66.96
2022-09-07T21:31:33.260Z,67.03
2022-09-07T21:34:01.870Z,67.08
2022-09-07T21:36:29.273Z,67.03
2022-09-07T21:38:55.764Z,66.83
2022-09-07T21:41:24.779Z,67.07
2022-09-07T21:43:59.518Z,67.54
2022-09-07T21:46:29.209Z,67.82
2022-09-07T21:48:58.163Z,68.06
2022-09-07T21:51:26.444Z,68.40
2022-09-07T21:53:55.228Z,68.40
2022-09-07T21:56:22.097Z,68.71
2022-09-07T21:58:52.683Z,68.87
2022-09-07T22:01:19.761Z,68.26
2022-09-07T22:03:48.691Z,68.00
2022-09-07T22:06:15.422Z,67.69
2022-09-07T22:08:42.845Z,68.19
2022-09-07T22:11:14.703Z,68.10
2022-09-07T22:13:41.882Z,68.17
2022-09-07T22:16:09.376Z,68.31
2022-09-07T22:18:37.800Z,68.42
2022-09-07T22:21:17.982Z,67.70
2022-09-07T22:23:49.043Z,67.88
2022-09-07T22:26:21.504Z,68.02
2022-09-07T22:28:48.846Z,68.60
2022-09-07T22:31:15.554Z,68.49
2022-09-07T22:33:43.296Z,68.42
2022-09-07T22:36:15.957Z,68.59
2022-09-07T22:38:45.555Z,68.87
2022-09-07T22:41:16.419Z,68.78
2022-09-07T22:43:43.540Z,69.18
2022-09-07T22:46:11.642Z,69.44
2022-09-07T22:48:40.149Z,69.57
2022-09-07T22:51:08.718Z,69.60
2022-09-07T22:53:39.267Z,69.22
2022-09-07T22:56:12.520Z,69.28
2022-09-07T22:58:39.598Z,69.46
2022-09-07T23:01:06.899Z,69.13
2022-09-07T23:03:35.251Z,69.01
2022-09-07T23:06:03.384Z,68.74
2022-09-07T23:08:29.896Z,68.98
2022-09-07T23:11:04.912Z,69.15
2022-09-07T23:13:33.119Z,69.49
2022-09-07T23:16:07.240Z,69.29
2022-09-07T23:18:35.508Z,69.29
2022-09-07T23:21:02.597Z,69.23
2022-09-07T23:23:29.902Z,69.66
2022-09-07T23:25:56.582Z,69.75
2022-09-07T23:28:23.100Z,70.18
2022-09-07T23:30:51.079Z,70.23
2022-09-07T23:33:18.218Z,70.37
2022-09-07T23:36:03.152Z,70.72
2022-09-07T23:38:31.025Z,70.14
2022-09-07T23:40:59.498Z,70.34
2022-09-07T23:43:28.227Z,70.28
2022-09-07T23:45:55.686Z,70.36
2022-09-07T23:48:23.253Z,70.20
2022-09-07T23:50:50.414Z,70.07
2022-09-07T23:53:18.018Z,69.78
2022-09-07T23:55:45.879Z,69.57
2022-09-07T23:58:12.425Z,69.07
